sensor_id;sensor_type;location;lat;lon;timestamp;temperature;humidity
29687;DHT22;16599;47.078;15.536;2024-01-07T00:00:08;3.80;99.90
29687;DHT22;16599;47.078;15.536;2024-01-07T00:02:34;3.70;99.90
29687;DHT22;16599;47.078;15.536;2024-01-07T00:05:03;3.60;99.90
29687;DHT22;16599;47.078;15.536;2024-01-07T00:07:30;3.40;99.90
29687;DHT22;16599;47.078;15.536;2024-01-07T00:09:56;3.50;99.90
29687;DHT22;16599;47.078;15.536;2024-01-07T00:12:23;3.50;99.90
29687;DHT22;16599;47.078;15.536;2024-01-07T00:14:51;3.60;99.90
29687;DHT22;16599;47.078;15.536;2024-01-07T00:17:18;3.70;99.90
29687;DHT22;16599;47.078;15.536;2024-01-07T00:19:45;3.60;99.90
29687;DHT22;16599;47.078;15.536;2024-01-07T00:22:12;3.70;99.90
29687;DHT22;16599;47.078;15.536;2024-01-07T00:24:38;3.60;99.90
29687;DHT22;16599;47.078;15.536;2024-01-07T00:27:05;3.50;99.90
29687;DHT22;16599;47.078;15.536;2024-01-07T00:29:34;3.40;99.90
29687;DHT22;16599;47.078;15.536;2024-01-07T00:32:02;3.40;99.90
29687;DHT22;16599;47.078;15.536;2024-01-07T00:34:28;3.40;99.90
29687;DHT22;16599;47.078;15.536;2024-01-07T00:36:55;3.50;99.90
29687;DHT22;16599;47.078;15.536;2024-01-07T00:39:22;3.60;99.90
29687;DHT22;16599;47.078;15.536;2024-01-07T00:41:49;3.60;99.90
29687;DHT22;16599;47.078;15.536;2024-01-07T00:44:16;3.60;99.90
29687;DHT22;16599;47.078;15.536;2024-01-07T00:46:43;3.50;99.90
29687;DHT22;16599;47.078;15.536;2024-01-07T00:49:14;3.50;99.90
29687;DHT22;16599;47.078;15.536;2024-01-07T00:51:41;3.50;99.90
29687;DHT22;16599;47.078;15.536;2024-01-07T00:54:08;3.50;99.90
29687;DHT22;16599;47.078;15.536;2024-01-07T00:56:34;3.50;99.90
29687;DHT22;16599;47.078;15.536;2024-01-07T00:59:01;3.40;99.90
29687;DHT22;16599;47.078;15.536;2024-01-07T01:01:28;3.50;99.90
29687;DHT22;16599;47.078;15.536;2024-01-07T01:03:55;3.50;99.90
29687;DHT22;16599;47.078;15.536;2024-01-07T01:06:24;3.50;99.90
29687;DHT22;16599;47.078;15.536;2024-01-07T01:08:51;3.50;99.90
29687;DHT22;16599;47.078;15.536;2024-01-07T01:11:18;3.50;99.90
29687;DHT22;16599;47.078;15.536;2024-01-07T01:13:45;3.60;99.90
29687;DHT22;16599;47.078;15.536;2024-01-07T01:16:12;3.60;99.90
29687;DHT22;16599;47.078;15.536;2024-01-07T01:18:38;3.70;99.90
29687;DHT22;16599;47.078;15.536;2024-01-07T01:21:05;3.60;99.90
29687;DHT22;16599;47.078;15.536;2024-01-07T01:23:32;3.60;99.90
29687;DHT22;16599;47.078;15.536;2024-01-07T01:25:59;3.50;99.90
29687;DHT22;16599;47.078;15.536;2024-01-07T01:28:25;3.50;99.90
29687;DHT22;16599;47.078;15.536;2024-01-07T01:30:52;3.40;99.90
29687;DHT22;16599;47.078;15.536;2024-01-07T01:33:19;3.40;99.90
29687;DHT22;16599;47.078;15.536;2024-01-07T01:35:46;3.50;99.90
29687;DHT22;16599;47.078;15.536;2024-01-07T01:38:13;3.60;99.90
29687;DHT22;16599;47.078;15.536;2024-01-07T01:40:40;3.60;99.90
29687;DHT22;16599;47.078;15.536;2024-01-07T01:43:07;3.60;99.90
29687;DHT22;16599;47.078;15.536;2024-01-07T01:45:34;3.60;99.90
29687;DHT22;16599;47.078;15.536;2024-01-07T01:48:01;3.50;99.90
29687;DHT22;16599;47.078;15.536;2024-01-07T01:50:28;3.40;99.90
29687;DHT22;16599;47.078;15.536;2024-01-07T01:52:54;3.40;99.90
29687;DHT22;16599;47.078;15.536;2024-01-07T01:55:22;3.40;99.90
29687;DHT22;16599;47.078;15.536;2024-01-07T01:57:50;3.30;99.90
29687;DHT22;16599;47.078;15.536;2024-01-07T02:00:17;3.40;99.90
29687;DHT22;16599;47.078;15.536;2024-01-07T02:02:44;3.50;99.90
29687;DHT22;16599;47.078;15.536;2024-01-07T02:05:10;3.50;99.90
29687;DHT22;16599;47.078;15.536;2024-01-07T02:07:40;3.50;99.90
29687;DHT22;16599;47.078;15.536;2024-01-07T02:10:07;3.40;99.90
29687;DHT22;16599;47.078;15.536;2024-01-07T02:12:34;3.50;99.90
29687;DHT22;16599;47.078;15.536;2024-01-07T02:15:01;3.50;99.90
29687;DHT22;16599;47.078;15.536;2024-01-07T02:17:28;3.50;99.90
29687;DHT22;16599;47.078;15.536;2024-01-07T02:19:55;3.50;99.90
29687;DHT22;16599;47.078;15.536;2024-01-07T02:22:22;3.40;99.90
29687;DHT22;16599;47.078;15.536;2024-01-07T02:24:49;3.40;99.90
29687;DHT22;16599;47.078;15.536;2024-01-07T02:27:16;3.50;99.90
29687;DHT22;16599;47.078;15.536;2024-01-07T02:29:42;3.50;99.90
29687;DHT22;16599;47.078;15.536;2024-01-07T02:32:09;3.50;99.90
29687;DHT22;16599;47.078;15.536;2024-01-07T02:34:36;3.60;99.90
29687;DHT22;16599;47.078;15.536;2024-01-07T02:37:03;3.60;99.90
29687;DHT22;16599;47.078;15.536;2024-01-07T02:39:30;3.60;99.90
29687;DHT22;16599;47.078;15.536;2024-01-07T02:41:57;3.60;99.90
29687;DHT22;16599;47.078;15.536;2024-01-07T02:44:23;3.40;99.90
29687;DHT22;16599;47.078;15.536;2024-01-07T02:46:50;3.50;99.90
29687;DHT22;16599;47.078;15.536;2024-01-07T02:49:17;3.50;99.90
29687;DHT22;16599;47.078;15.536;2024-01-07T02:51:44;3.70;99.90
29687;DHT22;16599;47.078;15.536;2024-01-07T02:54:15;3.50;99.90
29687;DHT22;16599;47.078;15.536;2024-01-07T02:56:42;3.40;99.90
29687;DHT22;16599;47.078;15.536;2024-01-07T02:59:09;3.50;99.90
29687;DHT22;16599;47.078;15.536;2024-01-07T03:01:36;3.50;99.90
29687;DHT22;16599;47.078;15.536;2024-01-07T03:04:07;3.50;99.90
29687;DHT22;16599;47.078;15.536;2024-01-07T03:06:34;3.60;99.90
29687;DHT22;16599;47.078;15.536;2024-01-07T03:09:01;3.60;99.90
29687;DHT22;16599;47.078;15.536;2024-01-07T03:11:29;3.60;99.90
29687;DHT22;16599;47.078;15.536;2024-01-07T03:13:56;3.60;99.90
29687;DHT22;16599;47.078;15.536;2024-01-07T03:16:23;3.50;99.90
29687;DHT22;16599;47.078;15.536;2024-01-07T03:18:50;3.40;99.90
29687;DHT22;16599;47.078;15.536;2024-01-07T03:21:18;3.50;99.90
29687;DHT22;16599;47.078;15.536;2024-01-07T03:23:46;3.50;99.90
29687;DHT22;16599;47.078;15.536;2024-01-07T03:26:13;3.50;99.90
29687;DHT22;16599;47.078;15.536;2024-01-07T03:28:40;3.50;99.90
29687;DHT22;16599;47.078;15.536;2024-01-07T03:31:14;3.50;99.90
29687;DHT22;16599;47.078;15.536;2024-01-07T03:33:41;3.40;99.90
29687;DHT22;16599;47.078;15.536;2024-01-07T03:36:09;3.50;99.90
29687;DHT22;16599;47.078;15.536;2024-01-07T03:38:36;3.60;99.90
29687;DHT22;16599;47.078;15.536;2024-01-07T03:41:03;3.60;99.90
29687;DHT22;16599;47.078;15.536;2024-01-07T03:43:30;3.60;99.90
29687;DHT22;16599;47.078;15.536;2024-01-07T03:45:57;3.50;99.90
29687;DHT22;16599;47.078;15.536;2024-01-07T03:48:24;3.50;99.90
29687;DHT22;16599;47.078;15.536;2024-01-07T03:50:51;3.60;99.90
29687;DHT22;16599;47.078;15.536;2024-01-07T03:53:18;3.50;99.90
29687;DHT22;16599;47.078;15.536;2024-01-07T03:55:44;3.50;99.90
29687;DHT22;16599;47.078;15.536;2024-01-07T03:58:11;3.50;99.90
29687;DHT22;16599;47.078;15.536;2024-01-07T04:00:38;3.50;99.90
29687;DHT22;16599;47.078;15.536;2024-01-07T04:03:05;3.40;99.90
29687;DHT22;16599;47.078;15.536;2024-01-07T04:05:32;3.50;99.90
29687;DHT22;16599;47.078;15.536;2024-01-07T04:08:03;3.50;99.90
29687;DHT22;16599;47.078;15.536;2024-01-07T04:10:30;3.60;99.90
29687;DHT22;16599;47.078;15.536;2024-01-07T04:12:56;3.50;99.90
29687;DHT22;16599;47.078;15.536;2024-01-07T04:15:23;3.50;99.90
29687;DHT22;16599;47.078;15.536;2024-01-07T04:17:50;3.50;99.90
29687;DHT22;16599;47.078;15.536;2024-01-07T04:20:17;3.60;99.90
29687;DHT22;16599;47.078;15.536;2024-01-07T04:22:44;3.60;99.90
29687;DHT22;16599;47.078;15.536;2024-01-07T04:25:10;3.60;99.90
29687;DHT22;16599;47.078;15.536;2024-01-07T04:27:37;3.60;99.90
29687;DHT22;16599;47.078;15.536;2024-01-07T04:30:05;3.70;99.90
29687;DHT22;16599;47.078;15.536;2024-01-07T04:32:32;3.50;99.90
29687;DHT22;16599;47.078;15.536;2024-01-07T04:34:59;3.50;99.90
29687;DHT22;16599;47.078;15.536;2024-01-07T04:37:26;3.50;99.90
29687;DHT22;16599;47.078;15.536;2024-01-07T04:39:53;3.60;99.90
29687;DHT22;16599;47.078;15.536;2024-01-07T04:42:20;3.50;99.90
29687;DHT22;16599;47.078;15.536;2024-01-07T04:44:46;3.50;99.90
29687;DHT22;16599;47.078;15.536;2024-01-07T04:47:32;3.60;99.90
29687;DHT22;16599;47.078;15.536;2024-01-07T04:50:02;3.40;99.90
29687;DHT22;16599;47.078;15.536;2024-01-07T04:52:29;3.40;99.90
29687;DHT22;16599;47.078;15.536;2024-01-07T04:54:56;3.50;99.90
29687;DHT22;16599;47.078;15.536;2024-01-07T04:57:23;3.40;99.90
29687;DHT22;16599;47.078;15.536;2024-01-07T04:59:50;3.50;99.90
29687;DHT22;16599;47.078;15.536;2024-01-07T05:02:18;3.50;99.90
29687;DHT22;16599;47.078;15.536;2024-01-07T05:04:44;3.60;99.90
29687;DHT22;16599;47.078;15.536;2024-01-07T05:07:11;3.50;99.90
29687;DHT22;16599;47.078;15.536;2024-01-07T05:09:38;3.50;99.90
29687;DHT22;16599;47.078;15.536;2024-01-07T05:12:05;3.50;99.90
29687;DHT22;16599;47.078;15.536;2024-01-07T05:14:32;3.50;99.90
29687;DHT22;16599;47.078;15.536;2024-01-07T05:16:59;3.60;99.90
29687;DHT22;16599;47.078;15.536;2024-01-07T05:19:26;3.50;99.90
29687;DHT22;16599;47.078;15.536;2024-01-07T05:21:53;3.40;99.90
29687;DHT22;16599;47.078;15.536;2024-01-07T05:24:20;3.50;99.90
29687;DHT22;16599;47.078;15.536;2024-01-07T05:26:47;3.40;99.90
29687;DHT22;16599;47.078;15.536;2024-01-07T05:29:13;3.40;99.90
29687;DHT22;16599;47.078;15.536;2024-01-07T05:31:40;3.40;99.90
29687;DHT22;16599;47.078;15.536;2024-01-07T05:34:07;3.50;99.90
29687;DHT22;16599;47.078;15.536;2024-01-07T05:36:34;3.50;99.90
29687;DHT22;16599;47.078;15.536;2024-01-07T05:39:01;3.40;99.90
29687;DHT22;16599;47.078;15.536;2024-01-07T05:41:29;3.40;99.90
29687;DHT22;16599;47.078;15.536;2024-01-07T05:43:57;3.50;99.90
29687;DHT22;16599;47.078;15.536;2024-01-07T05:46:24;3.50;99.90
29687;DHT22;16599;47.078;15.536;2024-01-07T05:48:51;3.50;99.90
29687;DHT22;16599;47.078;15.536;2024-01-07T05:51:18;3.50;99.90
29687;DHT22;16599;47.078;15.536;2024-01-07T05:53:45;3.50;99.90
29687;DHT22;16599;47.078;15.536;2024-01-07T05:56:12;3.40;99.90
29687;DHT22;16599;47.078;15.536;2024-01-07T05:58:39;3.50;99.90
29687;DHT22;16599;47.078;15.536;2024-01-07T06:01:07;3.50;99.90
29687;DHT22;16599;47.078;15.536;2024-01-07T06:03:34;3.40;99.90
29687;DHT22;16599;47.078;15.536;2024-01-07T06:06:02;3.40;99.90
29687;DHT22;16599;47.078;15.536;2024-01-07T06:08:29;3.40;99.90
29687;DHT22;16599;47.078;15.536;2024-01-07T06:10:56;3.40;99.90
29687;DHT22;16599;47.078;15.536;2024-01-07T06:13:22;3.40;99.90
29687;DHT22;16599;47.078;15.536;2024-01-07T06:15:49;3.40;99.90
29687;DHT22;16599;47.078;15.536;2024-01-07T06:18:16;3.50;99.90
29687;DHT22;16599;47.078;15.536;2024-01-07T06:20:43;3.50;99.90
29687;DHT22;16599;47.078;15.536;2024-01-07T06:23:10;3.40;99.90
29687;DHT22;16599;47.078;15.536;2024-01-07T06:25:37;3.40;99.90
29687;DHT22;16599;47.078;15.536;2024-01-07T06:28:03;3.40;99.90
29687;DHT22;16599;47.078;15.536;2024-01-07T06:30:30;3.40;99.90
29687;DHT22;16599;47.078;15.536;2024-01-07T06:32:57;3.40;99.90
29687;DHT22;16599;47.078;15.536;2024-01-07T06:35:24;3.40;99.90
29687;DHT22;16599;47.078;15.536;2024-01-07T06:37:51;3.50;99.90
29687;DHT22;16599;47.078;15.536;2024-01-07T06:40:17;3.50;99.90
29687;DHT22;16599;47.078;15.536;2024-01-07T06:42:44;3.50;99.90
29687;DHT22;16599;47.078;15.536;2024-01-07T06:45:11;3.50;99.90
29687;DHT22;16599;47.078;15.536;2024-01-07T06:47:38;3.50;99.90
29687;DHT22;16599;47.078;15.536;2024-01-07T06:50:04;3.60;99.90
29687;DHT22;16599;47.078;15.536;2024-01-07T06:52:32;3.40;99.90
29687;DHT22;16599;47.078;15.536;2024-01-07T06:54:59;3.40;99.90
29687;DHT22;16599;47.078;15.536;2024-01-07T06:57:26;3.40;99.90
29687;DHT22;16599;47.078;15.536;2024-01-07T06:59:52;3.40;99.90
29687;DHT22;16599;47.078;15.536;2024-01-07T07:02:20;3.40;99.90
29687;DHT22;16599;47.078;15.536;2024-01-07T07:04:46;3.40;99.90
29687;DHT22;16599;47.078;15.536;2024-01-07T07:07:14;3.40;99.90
29687;DHT22;16599;47.078;15.536;2024-01-07T07:09:41;3.40;99.90
29687;DHT22;16599;47.078;15.536;2024-01-07T07:12:08;3.50;99.90
29687;DHT22;16599;47.078;15.536;2024-01-07T07:14:35;3.50;99.90
29687;DHT22;16599;47.078;15.536;2024-01-07T07:17:02;3.60;99.90
29687;DHT22;16599;47.078;15.536;2024-01-07T07:19:29;3.50;99.90
29687;DHT22;16599;47.078;15.536;2024-01-07T07:21:56;3.60;99.90
29687;DHT22;16599;47.078;15.536;2024-01-07T07:24:23;3.60;99.90
29687;DHT22;16599;47.078;15.536;2024-01-07T07:26:50;3.60;99.90
29687;DHT22;16599;47.078;15.536;2024-01-07T07:29:17;3.60;99.90
29687;DHT22;16599;47.078;15.536;2024-01-07T07:31:43;3.70;99.90
29687;DHT22;16599;47.078;15.536;2024-01-07T07:34:10;3.70;99.90
29687;DHT22;16599;47.078;15.536;2024-01-07T07:36:38;3.70;99.90
29687;DHT22;16599;47.078;15.536;2024-01-07T07:39:07;3.70;99.90
29687;DHT22;16599;47.078;15.536;2024-01-07T07:41:35;3.80;99.90
29687;DHT22;16599;47.078;15.536;2024-01-07T07:44:02;3.90;99.90
29687;DHT22;16599;47.078;15.536;2024-01-07T07:46:30;3.90;99.90
29687;DHT22;16599;47.078;15.536;2024-01-07T07:48:56;3.90;99.90
29687;DHT22;16599;47.078;15.536;2024-01-07T07:51:23;3.90;99.90
29687;DHT22;16599;47.078;15.536;2024-01-07T07:53:50;3.90;99.90
29687;DHT22;16599;47.078;15.536;2024-01-07T07:56:17;4.00;99.90
29687;DHT22;16599;47.078;15.536;2024-01-07T08:05:46;4.00;99.90
29687;DHT22;16599;47.078;15.536;2024-01-07T08:08:13;4.00;99.90
29687;DHT22;16599;47.078;15.536;2024-01-07T08:10:39;4.00;99.90
29687;DHT22;16599;47.078;15.536;2024-01-07T08:13:06;4.00;99.90
29687;DHT22;16599;47.078;15.536;2024-01-07T08:15:33;4.00;99.90
29687;DHT22;16599;47.078;15.536;2024-01-07T08:18:00;3.90;99.90
29687;DHT22;16599;47.078;15.536;2024-01-07T08:20:29;4.00;99.90
29687;DHT22;16599;47.078;15.536;2024-01-07T08:22:58;4.00;99.90
29687;DHT22;16599;47.078;15.536;2024-01-07T08:25:27;4.00;99.90
29687;DHT22;16599;47.078;15.536;2024-01-07T08:27:53;4.10;99.90
29687;DHT22;16599;47.078;15.536;2024-01-07T08:30:20;4.10;99.90
29687;DHT22;16599;47.078;15.536;2024-01-07T08:32:49;4.10;99.90
29687;DHT22;16599;47.078;15.536;2024-01-07T08:35:19;4.20;99.90
29687;DHT22;16599;47.078;15.536;2024-01-07T08:37:49;4.10;99.90
29687;DHT22;16599;47.078;15.536;2024-01-07T08:40:16;4.20;99.90
29687;DHT22;16599;47.078;15.536;2024-01-07T08:42:46;4.20;99.90
29687;DHT22;16599;47.078;15.536;2024-01-07T08:45:13;4.20;99.90
29687;DHT22;16599;47.078;15.536;2024-01-07T08:47:40;4.10;99.90
29687;DHT22;16599;47.078;15.536;2024-01-07T08:50:10;4.10;99.90
29687;DHT22;16599;47.078;15.536;2024-01-07T08:55:30;4.10;99.90
29687;DHT22;16599;47.078;15.536;2024-01-07T08:57:57;4.10;99.90
29687;DHT22;16599;47.078;15.536;2024-01-07T09:00:24;4.10;99.90
29687;DHT22;16599;47.078;15.536;2024-01-07T09:02:53;4.10;99.90
29687;DHT22;16599;47.078;15.536;2024-01-07T09:05:20;4.10;99.90
29687;DHT22;16599;47.078;15.536;2024-01-07T09:07:47;4.10;99.90
29687;DHT22;16599;47.078;15.536;2024-01-07T09:10:14;4.10;99.90
29687;DHT22;16599;47.078;15.536;2024-01-07T09:12:41;4.10;99.90
29687;DHT22;16599;47.078;15.536;2024-01-07T09:15:08;4.10;99.90
29687;DHT22;16599;47.078;15.536;2024-01-07T09:17:36;4.20;99.90
29687;DHT22;16599;47.078;15.536;2024-01-07T09:20:03;4.20;99.90
29687;DHT22;16599;47.078;15.536;2024-01-07T09:22:32;4.20;99.90
29687;DHT22;16599;47.078;15.536;2024-01-07T09:24:59;4.20;99.90
29687;DHT22;16599;47.078;15.536;2024-01-07T09:27:26;4.20;99.90
29687;DHT22;16599;47.078;15.536;2024-01-07T09:29:52;4.20;99.90
29687;DHT22;16599;47.078;15.536;2024-01-07T09:32:27;4.20;99.90
29687;DHT22;16599;47.078;15.536;2024-01-07T09:35:02;4.20;99.90
29687;DHT22;16599;47.078;15.536;2024-01-07T09:37:32;4.10;99.90
29687;DHT22;16599;47.078;15.536;2024-01-07T09:39:59;4.10;99.90
29687;DHT22;16599;47.078;15.536;2024-01-07T09:42:26;4.10;99.90
29687;DHT22;16599;47.078;15.536;2024-01-07T09:44:53;4.20;99.90
29687;DHT22;16599;47.078;15.536;2024-01-07T09:47:20;4.20;99.90
29687;DHT22;16599;47.078;15.536;2024-01-07T09:49:48;4.10;99.90
29687;DHT22;16599;47.078;15.536;2024-01-07T09:52:15;4.20;99.90
29687;DHT22;16599;47.078;15.536;2024-01-07T09:54:44;4.20;99.90
29687;DHT22;16599;47.078;15.536;2024-01-07T09:57:15;4.20;99.90
29687;DHT22;16599;47.078;15.536;2024-01-07T09:59:43;4.20;99.90
29687;DHT22;16599;47.078;15.536;2024-01-07T10:02:10;4.10;99.90
29687;DHT22;16599;47.078;15.536;2024-01-07T10:04:37;4.20;99.90
29687;DHT22;16599;47.078;15.536;2024-01-07T10:07:04;4.20;99.90
29687;DHT22;16599;47.078;15.536;2024-01-07T10:09:32;4.30;99.90
29687;DHT22;16599;47.078;15.536;2024-01-07T10:11:59;4.20;99.90
29687;DHT22;16599;47.078;15.536;2024-01-07T10:14:26;4.10;99.90
29687;DHT22;16599;47.078;15.536;2024-01-07T10:20:37;4.00;99.90
29687;DHT22;16599;47.078;15.536;2024-01-07T10:23:08;4.00;99.90
29687;DHT22;16599;47.078;15.536;2024-01-07T10:25:35;4.10;99.90
29687;DHT22;16599;47.078;15.536;2024-01-07T10:31:19;4.10;99.90
29687;DHT22;16599;47.078;15.536;2024-01-07T10:33:46;4.10;99.90
29687;DHT22;16599;47.078;15.536;2024-01-07T10:36:13;4.10;99.90
29687;DHT22;16599;47.078;15.536;2024-01-07T10:38:40;4.10;99.90
29687;DHT22;16599;47.078;15.536;2024-01-07T10:41:10;4.10;99.90
29687;DHT22;16599;47.078;15.536;2024-01-07T10:43:38;4.20;99.90
29687;DHT22;16599;47.078;15.536;2024-01-07T10:52:26;4.10;99.90
29687;DHT22;16599;47.078;15.536;2024-01-07T10:54:56;4.10;99.90
29687;DHT22;16599;47.078;15.536;2024-01-07T10:57:43;4.00;99.90
29687;DHT22;16599;47.078;15.536;2024-01-07T11:03:13;4.00;99.90
29687;DHT22;16599;47.078;15.536;2024-01-07T11:09:15;4.30;99.90
29687;DHT22;16599;47.078;15.536;2024-01-07T11:12:00;4.40;99.90
29687;DHT22;16599;47.078;15.536;2024-01-07T11:14:39;4.30;99.90
29687;DHT22;16599;47.078;15.536;2024-01-07T11:20:34;4.40;99.90
29687;DHT22;16599;47.078;15.536;2024-01-07T11:26:06;4.40;99.90
29687;DHT22;16599;47.078;15.536;2024-01-07T11:28:42;4.40;99.90
29687;DHT22;16599;47.078;15.536;2024-01-07T11:31:09;4.40;99.90
29687;DHT22;16599;47.078;15.536;2024-01-07T11:33:36;4.30;99.90
29687;DHT22;16599;47.078;15.536;2024-01-07T11:39:46;4.20;99.90
29687;DHT22;16599;47.078;15.536;2024-01-07T11:52:49;4.40;99.90
29687;DHT22;16599;47.078;15.536;2024-01-07T12:08:48;4.50;99.90
29687;DHT22;16599;47.078;15.536;2024-01-07T12:11:15;4.40;99.90
29687;DHT22;16599;47.078;15.536;2024-01-07T12:13:42;4.50;99.90
29687;DHT22;16599;47.078;15.536;2024-01-07T12:16:09;4.50;99.90
29687;DHT22;16599;47.078;15.536;2024-01-07T12:18:37;4.50;99.90
29687;DHT22;16599;47.078;15.536;2024-01-07T12:21:05;4.50;99.90
29687;DHT22;16599;47.078;15.536;2024-01-07T12:23:35;4.60;99.90
29687;DHT22;16599;47.078;15.536;2024-01-07T12:26:10;4.60;99.90
29687;DHT22;16599;47.078;15.536;2024-01-07T12:28:37;4.60;99.90
29687;DHT22;16599;47.078;15.536;2024-01-07T12:31:05;4.60;99.90
29687;DHT22;16599;47.078;15.536;2024-01-07T12:36:33;4.60;99.90
29687;DHT22;16599;47.078;15.536;2024-01-07T12:39:01;4.70;99.90
29687;DHT22;16599;47.078;15.536;2024-01-07T12:41:28;4.70;99.90
29687;DHT22;16599;47.078;15.536;2024-01-07T12:43:55;4.80;99.90
29687;DHT22;16599;47.078;15.536;2024-01-07T12:46:22;4.70;99.90
29687;DHT22;16599;47.078;15.536;2024-01-07T12:48:49;4.70;99.90
29687;DHT22;16599;47.078;15.536;2024-01-07T12:51:16;4.70;99.90
29687;DHT22;16599;47.078;15.536;2024-01-07T12:53:48;4.60;99.90
29687;DHT22;16599;47.078;15.536;2024-01-07T12:56:14;4.70;99.90
29687;DHT22;16599;47.078;15.536;2024-01-07T12:58:41;4.70;99.90
29687;DHT22;16599;47.078;15.536;2024-01-07T13:01:08;4.80;99.90
29687;DHT22;16599;47.078;15.536;2024-01-07T13:03:35;4.80;99.90
29687;DHT22;16599;47.078;15.536;2024-01-07T13:06:02;4.70;99.90
29687;DHT22;16599;47.078;15.536;2024-01-07T13:08:30;4.70;99.90
29687;DHT22;16599;47.078;15.536;2024-01-07T13:10:56;4.50;99.90
29687;DHT22;16599;47.078;15.536;2024-01-07T13:13:25;4.50;99.90
29687;DHT22;16599;47.078;15.536;2024-01-07T13:15:51;4.60;99.90
29687;DHT22;16599;47.078;15.536;2024-01-07T13:18:18;4.50;99.90
29687;DHT22;16599;47.078;15.536;2024-01-07T13:20:46;4.60;99.90
29687;DHT22;16599;47.078;15.536;2024-01-07T13:23:13;4.50;99.90
29687;DHT22;16599;47.078;15.536;2024-01-07T13:25:39;4.50;99.90
29687;DHT22;16599;47.078;15.536;2024-01-07T13:28:06;4.40;99.90
29687;DHT22;16599;47.078;15.536;2024-01-07T13:30:37;4.50;99.90
29687;DHT22;16599;47.078;15.536;2024-01-07T13:33:04;4.40;99.90
29687;DHT22;16599;47.078;15.536;2024-01-07T13:35:33;4.50;99.90
29687;DHT22;16599;47.078;15.536;2024-01-07T13:38:00;4.50;99.90
29687;DHT22;16599;47.078;15.536;2024-01-07T13:40:28;4.40;99.90
29687;DHT22;16599;47.078;15.536;2024-01-07T13:42:55;4.40;99.90
29687;DHT22;16599;47.078;15.536;2024-01-07T13:45:22;4.50;99.90
29687;DHT22;16599;47.078;15.536;2024-01-07T13:47:50;4.50;99.90
29687;DHT22;16599;47.078;15.536;2024-01-07T13:53:46;4.30;99.90
29687;DHT22;16599;47.078;15.536;2024-01-07T13:56:12;4.30;99.90
29687;DHT22;16599;47.078;15.536;2024-01-07T13:58:39;4.10;99.90
29687;DHT22;16599;47.078;15.536;2024-01-07T14:01:08;4.10;99.90
29687;DHT22;16599;47.078;15.536;2024-01-07T14:03:35;4.20;99.90
29687;DHT22;16599;47.078;15.536;2024-01-07T14:06:02;4.10;99.90
29687;DHT22;16599;47.078;15.536;2024-01-07T14:08:29;4.10;99.90
29687;DHT22;16599;47.078;15.536;2024-01-07T14:10:56;4.10;99.90
29687;DHT22;16599;47.078;15.536;2024-01-07T14:13:24;4.10;99.90
29687;DHT22;16599;47.078;15.536;2024-01-07T14:15:51;4.00;99.90
29687;DHT22;16599;47.078;15.536;2024-01-07T14:18:18;4.10;99.90
29687;DHT22;16599;47.078;15.536;2024-01-07T14:20:48;4.00;99.90
29687;DHT22;16599;47.078;15.536;2024-01-07T14:23:15;4.10;99.90
29687;DHT22;16599;47.078;15.536;2024-01-07T14:25:42;4.00;99.90
29687;DHT22;16599;47.078;15.536;2024-01-07T14:28:08;4.00;99.90
29687;DHT22;16599;47.078;15.536;2024-01-07T14:30:36;3.90;99.90
29687;DHT22;16599;47.078;15.536;2024-01-07T14:33:03;3.80;99.90
29687;DHT22;16599;47.078;15.536;2024-01-07T14:35:30;3.90;99.90
29687;DHT22;16599;47.078;15.536;2024-01-07T14:37:58;3.90;99.90
29687;DHT22;16599;47.078;15.536;2024-01-07T14:40:26;3.80;99.90
29687;DHT22;16599;47.078;15.536;2024-01-07T14:42:53;3.50;99.90
29687;DHT22;16599;47.078;15.536;2024-01-07T14:45:24;3.40;99.90
29687;DHT22;16599;47.078;15.536;2024-01-07T14:47:54;3.50;99.90
29687;DHT22;16599;47.078;15.536;2024-01-07T14:50:21;3.40;99.90
29687;DHT22;16599;47.078;15.536;2024-01-07T14:52:58;3.20;99.90
29687;DHT22;16599;47.078;15.536;2024-01-07T14:55:25;3.30;99.90
29687;DHT22;16599;47.078;15.536;2024-01-07T14:57:53;3.30;99.90
29687;DHT22;16599;47.078;15.536;2024-01-07T15:00:20;3.20;99.90
29687;DHT22;16599;47.078;15.536;2024-01-07T15:02:47;3.20;99.90
29687;DHT22;16599;47.078;15.536;2024-01-07T15:05:13;3.10;99.90
29687;DHT22;16599;47.078;15.536;2024-01-07T15:07:40;3.10;99.90
29687;DHT22;16599;47.078;15.536;2024-01-07T15:10:07;3.10;99.90
29687;DHT22;16599;47.078;15.536;2024-01-07T15:12:34;3.20;99.90
29687;DHT22;16599;47.078;15.536;2024-01-07T15:15:12;3.10;99.90
29687;DHT22;16599;47.078;15.536;2024-01-07T15:17:39;3.00;99.90
29687;DHT22;16599;47.078;15.536;2024-01-07T15:20:06;2.90;99.90
29687;DHT22;16599;47.078;15.536;2024-01-07T15:22:33;2.80;99.90
29687;DHT22;16599;47.078;15.536;2024-01-07T15:25:00;2.80;99.90
29687;DHT22;16599;47.078;15.536;2024-01-07T15:27:27;2.90;99.90
29687;DHT22;16599;47.078;15.536;2024-01-07T15:29:56;2.90;99.90
29687;DHT22;16599;47.078;15.536;2024-01-07T15:32:22;2.90;99.90
29687;DHT22;16599;47.078;15.536;2024-01-07T15:34:49;2.90;99.90
29687;DHT22;16599;47.078;15.536;2024-01-07T15:37:16;2.90;99.90
29687;DHT22;16599;47.078;15.536;2024-01-07T15:39:46;2.80;99.90
29687;DHT22;16599;47.078;15.536;2024-01-07T15:42:12;2.80;99.90
29687;DHT22;16599;47.078;15.536;2024-01-07T15:44:40;2.80;99.90
29687;DHT22;16599;47.078;15.536;2024-01-07T15:47:07;2.70;99.90
29687;DHT22;16599;47.078;15.536;2024-01-07T15:49:41;2.80;99.90
29687;DHT22;16599;47.078;15.536;2024-01-07T15:52:11;3.00;99.90
29687;DHT22;16599;47.078;15.536;2024-01-07T15:54:38;2.90;99.90
29687;DHT22;16599;47.078;15.536;2024-01-07T15:57:05;2.80;99.90
29687;DHT22;16599;47.078;15.536;2024-01-07T16:20:38;2.60;99.90
29687;DHT22;16599;47.078;15.536;2024-01-07T16:23:08;2.70;99.90
29687;DHT22;16599;47.078;15.536;2024-01-07T16:25:35;2.60;99.90
29687;DHT22;16599;47.078;15.536;2024-01-07T16:28:02;2.60;99.90
29687;DHT22;16599;47.078;15.536;2024-01-07T16:30:29;2.40;99.90
29687;DHT22;16599;47.078;15.536;2024-01-07T16:32:56;2.50;99.90
29687;DHT22;16599;47.078;15.536;2024-01-07T16:35:23;2.30;99.90
29687;DHT22;16599;47.078;15.536;2024-01-07T16:37:50;2.20;99.90
29687;DHT22;16599;47.078;15.536;2024-01-07T16:40:17;2.20;99.90
29687;DHT22;16599;47.078;15.536;2024-01-07T16:42:44;2.30;99.90
29687;DHT22;16599;47.078;15.536;2024-01-07T16:45:10;2.20;99.90
29687;DHT22;16599;47.078;15.536;2024-01-07T16:47:37;2.10;99.90
29687;DHT22;16599;47.078;15.536;2024-01-07T16:50:04;2.10;99.90
29687;DHT22;16599;47.078;15.536;2024-01-07T16:52:34;2.10;99.90
29687;DHT22;16599;47.078;15.536;2024-01-07T16:55:01;2.10;99.90
29687;DHT22;16599;47.078;15.536;2024-01-07T17:35:29;1.90;99.90
29687;DHT22;16599;47.078;15.536;2024-01-07T17:41:27;2.00;99.90
29687;DHT22;16599;47.078;15.536;2024-01-07T17:43:57;1.90;99.90